»·PEaware :: AAY383 KELP-KTUS

AAY383 :: KELP-KTUS

FLIGHT INFORMATION

Flight Status: Arrived
Operator:
Allegiant Air
More flights by this operator :: More flights under this callsign
Pilot: David C. (16084)
Aircraft: Airbus A320neo
(A20N)
More flights by this aircraft type
Origin: KELP El Paso Intl
United States
Destination: KTUS Tucson Intl
United States
More flights between these airports :: More routes between these airports
Route: JCOXX2 TELKE ZONNA ZONNA1
File this flight plan on PilotEdge
Remarks:
Altitude:
(Current/Filed)
28,000ft
Speed:
(Current/Filed)
483kts
Departed: 23-Aug-23 11:30 AM
Arrived: 23-Aug-23 12:16 PM
Distance/Time
Traveled:
233nm/0:46
Distance/Time
To Go:
Arrived

Flight Plot

Page will automatically refresh every two minutes.

Flight plan parsing failed; only flown route is shown


Map Options




Map Legend


Flown Route
Filed Route
Departure Airport
Arrival Airport
Navaid (VOR, NDB)
Fix

Horizontal Profiles

Position Reports

Time Latitude Longitude Heading Altitude Ground
Speed
23-Aug-23 11:01 31.800523 -106.394653 160 3923ft 0kts
23-Aug-23 11:02 31.800523 -106.394653 160 3923ft 0kts
23-Aug-23 11:03 31.800523 -106.394653 160 3923ft 0kts
23-Aug-23 11:04 31.800523 -106.394653 160 3923ft 0kts
23-Aug-23 11:05 31.800523 -106.394653 160 3923ft 0kts
23-Aug-23 11:06 31.800523 -106.394653 160 3923ft 0kts
23-Aug-23 11:07 31.800523 -106.394653 160 3923ft 0kts
23-Aug-23 11:08 31.800523 -106.394653 160 3923ft 0kts
23-Aug-23 11:09 31.800523 -106.394653 160 3923ft 0kts
23-Aug-23 11:10 31.800523 -106.394653 160 3923ft 0kts
23-Aug-23 11:11 31.800523 -106.394653 160 3923ft 0kts
23-Aug-23 11:12 31.800523 -106.394653 160 3923ft 0kts
23-Aug-23 11:13 31.800523 -106.394653 160 3923ft 0kts
23-Aug-23 11:14 31.800523 -106.394653 160 3923ft 0kts
23-Aug-23 11:15 31.800523 -106.394653 160 3923ft 0kts
23-Aug-23 11:16 31.800523 -106.394653 160 3923ft 0kts
23-Aug-23 11:17 31.800523 -106.394653 160 3923ft 0kts
23-Aug-23 11:18 31.800595 -106.394683 160 3923ft 1kts
23-Aug-23 11:19 31.800978 -106.394974 131 3923ft 1kts
23-Aug-23 11:19 31.800982 -106.394980 131 3923ft 0kts
23-Aug-23 11:21 31.800982 -106.394980 131 3923ft 0kts
23-Aug-23 11:22 31.800982 -106.394980 131 3923ft 0kts
23-Aug-23 11:23 31.800982 -106.394980 131 3923ft 0kts
23-Aug-23 11:23 31.800982 -106.394980 131 3923ft 0kts
23-Aug-23 11:24 31.800980 -106.394976 131 3923ft 0kts
23-Aug-23 11:26 31.800955 -106.394814 88 3923ft 0kts
23-Aug-23 11:27 31.801524 -106.397289 255 3921ft 16kts
23-Aug-23 11:27 31.800870 -106.398803 289 3919ft 0kts
23-Aug-23 11:28 31.801889 -106.399378 50 3919ft 0kts
23-Aug-23 11:29 31.821886 -106.371080 49 4391ft 180kts
23-Aug-23 11:30 31.855829 -106.323122 37 6898ft 207kts
23-Aug-23 11:32 31.912325 -106.372723 301 9303ft 303kts
23-Aug-23 11:32 31.945936 -106.451052 286 11157ft 348kts
23-Aug-23 11:33 31.950969 -106.567772 268 13754ft 377kts
23-Aug-23 11:34 31.954466 -106.698114 270 15967ft 410kts
23-Aug-23 11:35 31.959726 -106.833965 270 18567ft 422kts
23-Aug-23 11:36 31.964804 -106.974016 269 20804ft 436kts
23-Aug-23 11:37 31.969829 -107.118174 269 22898ft 447kts
23-Aug-23 11:38 31.974844 -107.266422 269 24767ft 458kts
23-Aug-23 11:39 31.979797 -107.418768 269 26184ft 474kts
23-Aug-23 11:40 31.984747 -107.576138 268 27389ft 489kts
23-Aug-23 11:41 31.989663 -107.738921 268 28231ft 507kts
23-Aug-23 11:42 31.994526 -107.907102 268 28245ft 516kts
23-Aug-23 11:43 31.999196 -108.076192 268 28246ft 516kts
23-Aug-23 11:44 32.003614 -108.244859 268 28251ft 514kts
23-Aug-23 11:45 32.007800 -108.412823 268 28254ft 513kts
23-Aug-23 11:46 32.011782 -108.580856 268 28253ft 513kts
23-Aug-23 11:47 32.017160 -108.749462 273 28255ft 513kts
23-Aug-23 11:48 32.043063 -108.914529 280 28255ft 513kts
23-Aug-23 11:49 32.073119 -109.078933 280 28247ft 513kts
23-Aug-23 11:50 32.102644 -109.243501 281 28209ft 512kts
23-Aug-23 11:51 32.132367 -109.407944 281 28063ft 513kts
23-Aug-23 11:52 32.161373 -109.572427 281 25581ft 512kts
23-Aug-23 11:53 32.189678 -109.734911 281 22064ft 488kts
23-Aug-23 11:54 32.205037 -109.890230 266 19533ft 469kts
23-Aug-23 11:55 32.189983 -110.039679 263 16969ft 450kts
23-Aug-23 11:56 32.174985 -110.182272 263 14930ft 418kts
23-Aug-23 11:57 32.162281 -110.309949 271 14046ft 365kts
23-Aug-23 11:58 32.201309 -110.415696 303 14002ft 358kts
23-Aug-23 11:59 32.252548 -110.517107 302 14000ft 359kts
23-Aug-23 12:00 32.302938 -110.618641 302 14000ft 359kts
23-Aug-23 12:01 32.354006 -110.720529 302 13798ft 361kts
23-Aug-23 12:02 32.404656 -110.820611 301 12069ft 347kts
23-Aug-23 12:03 32.453270 -110.916919 301 10873ft 342kts
23-Aug-23 12:04 32.500173 -111.014496 290 10001ft 340kts
23-Aug-23 12:05 32.498415 -111.118423 244 9706ft 302kts
23-Aug-23 12:06 32.443857 -111.187676 204 8363ft 283kts
23-Aug-23 12:07 32.370289 -111.201535 169 7136ft 265kts
23-Aug-23 12:08 32.306858 -111.164041 136 6045ft 252kts
23-Aug-23 12:09 32.263836 -111.113116 134 5662ft 193kts
23-Aug-23 12:10 32.226074 -111.068548 134 5150ft 178kts
23-Aug-23 12:11 32.193621 -111.030294 134 4574ft 163kts
23-Aug-23 12:12 32.163343 -110.994695 135 3676ft 135kts
23-Aug-23 12:13 32.136985 -110.963946 134 2998ft 133kts
23-Aug-23 12:14 32.114017 -110.936915 135 2602ft 56kts
23-Aug-23 12:15 32.112698 -110.932954 313 2602ft 15kts
23-Aug-23 12:16 32.117183 -110.938033 351 2602ft 22kts
23-Aug-23 12:17 32.118502 -110.937371 51 2602ft 0kts

Navigation Log

Ident Type
Flight plan parsing failed, navigation log unavailable